Hovedside
METAR-TAF:

METAR-TAF

Lufthavner :

Ringkøbing-Skjern, Danmark

Stauning lufthavn

breddegrad: 56-00N, lengdegrad: 008-21E, høyde over havet: 5 m

Gjeldene værobservasjon

Denne rapporten ble laget for 30 minutter siden, klokken 13:50 UTC
Vind 16 kt fra Sør-sørvest
Temperatur 10°C
Luftfuktighet 100%
Trykk 995 hPa
Sikt: 1500 m
Få skyer i en høyde av 300 ft
Brutte skyer i en høyde av 400 ft
duskregn, regn

METAR: EKVJ 221350Z 21016KT 1500 DZRA FEW003 BKN004 10/10 Q0995

Tid: 15:20 (14:20 UTC)

Varsel

Denne rapporten ble laget for 2 timer og 13 minutter siden, klokken 12:07 UTC
Varsel gyldig fra 22. klokken 12 UTC til 22. klokken 16 UTC
Vind 15 kt fra Sørvest
Sikt: 8000 m
Brutte skyer i en høyde av 1500 ft
Midlertidig
fra 22. klokken 12 UTC til 22. klokken 16 UTC
Sikt: 2000 m
Brutte skyer i en høyde av 400 ft
regn, duskregn

TAF: EKVJ 221207Z 2212/2216 23015KT 8000 BKN015 TEMPO 2212/2216 2000 RADZ BKN004

Værobservasjoner og værvarsel for over 4000 flyplasser (METAR- og TAF-rapporter).

Tilgjengelige stasjoner er representert av de røde og gule prikkene på kartet.

Hold musepekeren over prikken for å se navnet på stasjonen.

Klikk så for å se værobservasjoner og -varsler.

For å forandre kartet kan du klikke på den grønne knappen med svart kryss for å zoome inn, på den grønne knappen med strek for å zoome ut, eller på de grønne pilene for å se tilstøtende kart.


METAR-TAF: